sensor_id;sensor_type;location;lat;lon;timestamp;pressure;altitude;pressure_sealevel;temperature;humidity
54389;BME280;40975;50.390;8.640;2023-09-12T00:00:36;98670.06;;;17.11;100.00
54389;BME280;40975;50.390;8.640;2023-09-12T00:03:02;98675.22;;;17.13;100.00
54389;BME280;40975;50.390;8.640;2023-09-12T00:05:27;98676.88;;;17.14;100.00
54389;BME280;40975;50.390;8.640;2023-09-12T00:07:52;98661.97;;;17.04;100.00
54389;BME280;40975;50.390;8.640;2023-09-12T00:10:19;98668.78;;;17.07;100.00
54389;BME280;40975;50.390;8.640;2023-09-12T00:12:44;98671.94;;;17.11;100.00
54389;BME280;40975;50.390;8.640;2023-09-12T00:15:09;98664.91;;;17.09;100.00
54389;BME280;40975;50.390;8.640;2023-09-12T00:17:35;98672.75;;;17.11;100.00
54389;BME280;40975;50.390;8.640;2023-09-12T00:20:00;98666.97;;;17.14;100.00
54389;BME280;40975;50.390;8.640;2023-09-12T00:22:25;98671.13;;;17.17;100.00
54389;BME280;40975;50.390;8.640;2023-09-12T00:24:50;98664.94;;;17.16;100.00
54389;BME280;40975;50.390;8.640;2023-09-12T00:27:16;98670.06;;;17.11;100.00
54389;BME280;40975;50.390;8.640;2023-09-12T00:29:41;98661.19;;;17.11;100.00
54389;BME280;40975;50.390;8.640;2023-09-12T00:32:06;98670.28;;;17.16;100.00
54389;BME280;40975;50.390;8.640;2023-09-12T00:34:32;98657.72;;;17.17;100.00
54389;BME280;40975;50.390;8.640;2023-09-12T00:36:58;98654.00;;;17.18;100.00
54389;BME280;40975;50.390;8.640;2023-09-12T00:39:23;98663.28;;;17.22;100.00
54389;BME280;40975;50.390;8.640;2023-09-12T00:41:48;98661.19;;;17.17;100.00
54389;BME280;40975;50.390;8.640;2023-09-12T00:44:13;98656.47;;;17.19;100.00
54389;BME280;40975;50.390;8.640;2023-09-12T00:46:39;98657.72;;;17.17;100.00
54389;BME280;40975;50.390;8.640;2023-09-12T00:49:06;98653.16;;;17.17;100.00
54389;BME280;40975;50.390;8.640;2023-09-12T00:51:33;98641.81;;;17.22;100.00
54389;BME280;40975;50.390;8.640;2023-09-12T00:54:00;98646.63;;;17.27;100.00
54389;BME280;40975;50.390;8.640;2023-09-12T00:56:26;98647.22;;;17.29;100.00
54389;BME280;40975;50.390;8.640;2023-09-12T00:58:51;98651.38;;;17.31;100.00
54389;BME280;40975;50.390;8.640;2023-09-12T01:01:19;98653.00;;;17.32;100.00
54389;BME280;40975;50.390;8.640;2023-09-12T01:03:45;98651.16;;;17.33;100.00
54389;BME280;40975;50.390;8.640;2023-09-12T01:06:11;98651.38;;;17.31;100.00
54389;BME280;40975;50.390;8.640;2023-09-12T01:08:37;98655.22;;;17.22;100.00
54389;BME280;40975;50.390;8.640;2023-09-12T01:11:03;98648.63;;;17.18;100.00
54389;BME280;40975;50.390;8.640;2023-09-12T01:13:29;98653.16;;;17.17;100.00
54389;BME280;40975;50.390;8.640;2023-09-12T01:15:55;98650.91;;;17.14;100.00
54389;BME280;40975;50.390;8.640;2023-09-12T01:18:20;98651.06;;;17.06;100.00
54389;BME280;40975;50.390;8.640;2023-09-12T01:21:08;98649.59;;;16.97;100.00
54389;BME280;40975;50.390;8.640;2023-09-12T01:29:19;98660.81;;;16.78;100.00
54389;BME280;40975;50.390;8.640;2023-09-12T01:31:47;98655.41;;;16.72;100.00
54389;BME280;40975;50.390;8.640;2023-09-12T01:34:12;98656.63;;;16.69;100.00
54389;BME280;40975;50.390;8.640;2023-09-12T01:36:39;98662.78;;;16.63;100.00
54389;BME280;40975;50.390;8.640;2023-09-12T01:39:04;98656.16;;;16.59;100.00
54389;BME280;40975;50.390;8.640;2023-09-12T01:41:32;98658.22;;;16.57;100.00
54389;BME280;40975;50.390;8.640;2023-09-12T01:44:00;98653.66;;;16.51;100.00
54389;BME280;40975;50.390;8.640;2023-09-12T01:46:27;98663.09;;;16.46;100.00
54389;BME280;40975;50.390;8.640;2023-09-12T01:48:54;98647.22;;;16.45;100.00
54389;BME280;40975;50.390;8.640;2023-09-12T01:51:21;98657.50;;;16.41;100.00
54389;BME280;40975;50.390;8.640;2023-09-12T01:53:48;98652.16;;;16.41;100.00
54389;BME280;40975;50.390;8.640;2023-09-12T01:56:14;98644.88;;;16.35;100.00
54389;BME280;40975;50.390;8.640;2023-09-12T01:58:40;98642.78;;;16.30;100.00
54389;BME280;40975;50.390;8.640;2023-09-12T02:01:05;98648.09;;;16.24;100.00
54389;BME280;40975;50.390;8.640;2023-09-12T02:03:31;98649.31;;;16.21;100.00
54389;BME280;40975;50.390;8.640;2023-09-12T02:05:56;98648.69;;;16.19;100.00
54389;BME280;40975;50.390;8.640;2023-09-12T02:08:22;98647.44;;;16.15;100.00
54389;BME280;40975;50.390;8.640;2023-09-12T02:10:47;98643.09;;;16.14;100.00
54389;BME280;40975;50.390;8.640;2023-09-12T02:13:12;98639.97;;;16.10;100.00
54389;BME280;40975;50.390;8.640;2023-09-12T02:15:38;98639.53;;;16.07;100.00
54389;BME280;40975;50.390;8.640;2023-09-12T02:18:03;98642.78;;;16.02;100.00
54389;BME280;40975;50.390;8.640;2023-09-12T02:20:28;98646.03;;;15.97;100.00
54389;BME280;40975;50.390;8.640;2023-09-12T02:22:54;98649.28;;;15.93;100.00
54389;BME280;40975;50.390;8.640;2023-09-12T02:25:19;98651.34;;;15.91;100.00
54389;BME280;40975;50.390;8.640;2023-09-12T02:27:46;98642.38;;;15.83;100.00
54389;BME280;40975;50.390;8.640;2023-09-12T02:30:12;98656.66;;;15.84;100.00
54389;BME280;40975;50.390;8.640;2023-09-12T02:32:38;98648.53;;;15.77;100.00
54389;BME280;40975;50.390;8.640;2023-09-12T02:35:03;98647.69;;;15.77;100.00
54389;BME280;40975;50.390;8.640;2023-09-12T02:37:29;98653.81;;;15.70;100.00
54389;BME280;40975;50.390;8.640;2023-09-12T02:39:54;98648.44;;;15.70;100.00
54389;BME280;40975;50.390;8.640;2023-09-12T02:42:20;98652.16;;;15.69;100.00
54389;BME280;40975;50.390;8.640;2023-09-12T02:44:46;98648.00;;;15.67;100.00
54389;BME280;40975;50.390;8.640;2023-09-12T02:47:13;98650.69;;;15.67;100.00
54389;BME280;40975;50.390;8.640;2023-09-12T02:49:39;98648.41;;;15.85;100.00
54389;BME280;40975;50.390;8.640;2023-09-12T02:52:04;98651.00;;;15.79;100.00
54389;BME280;40975;50.390;8.640;2023-09-12T02:54:30;98653.28;;;15.82;100.00
54389;BME280;40975;50.390;8.640;2023-09-12T02:56:55;98650.19;;;15.78;100.00
54389;BME280;40975;50.390;8.640;2023-09-12T02:59:20;98651.41;;;15.76;100.00
54389;BME280;40975;50.390;8.640;2023-09-12T03:01:46;98644.38;;;15.75;100.00
54389;BME280;40975;50.390;8.640;2023-09-12T03:04:11;98643.38;;;15.76;100.00
54389;BME280;40975;50.390;8.640;2023-09-12T03:06:36;98643.53;;;15.74;100.00
54389;BME280;40975;50.390;8.640;2023-09-12T03:09:02;98642.94;;;15.72;100.00
54389;BME280;40975;50.390;8.640;2023-09-12T03:11:28;98639.41;;;15.72;100.00
54389;BME280;40975;50.390;8.640;2023-09-12T03:13:54;98640.00;;;15.67;100.00
54389;BME280;40975;50.390;8.640;2023-09-12T03:16:20;98638.31;;;15.66;100.00
54389;BME280;40975;50.390;8.640;2023-09-12T03:18:46;98640.56;;;15.62;100.00
54389;BME280;40975;50.390;8.640;2023-09-12T03:21:12;98635.59;;;15.59;100.00
54389;BME280;40975;50.390;8.640;2023-09-12T03:23:37;98622.22;;;15.59;100.00
54389;BME280;40975;50.390;8.640;2023-09-12T03:26:06;98627.13;;;15.55;100.00
54389;BME280;40975;50.390;8.640;2023-09-12T03:28:33;98628.34;;;15.53;100.00
54389;BME280;40975;50.390;8.640;2023-09-12T03:31:10;98632.84;;;15.52;100.00
54389;BME280;40975;50.390;8.640;2023-09-12T03:33:39;98626.88;;;15.50;100.00
54389;BME280;40975;50.390;8.640;2023-09-12T03:36:05;98629.34;;;15.52;100.00
54389;BME280;40975;50.390;8.640;2023-09-12T03:38:31;98622.13;;;15.52;100.00
54389;BME280;40975;50.390;8.640;2023-09-12T03:40:57;98612.09;;;15.54;100.00
54389;BME280;40975;50.390;8.640;2023-09-12T03:43:22;98617.25;;;15.56;100.00
54389;BME280;40975;50.390;8.640;2023-09-12T03:45:47;98615.03;;;15.60;100.00
54389;BME280;40975;50.390;8.640;2023-09-12T03:48:14;98618.16;;;15.63;100.00
54389;BME280;40975;50.390;8.640;2023-09-12T03:50:39;98610.94;;;15.64;100.00
54389;BME280;40975;50.390;8.640;2023-09-12T03:53:05;98611.59;;;15.66;100.00
54389;BME280;40975;50.390;8.640;2023-09-12T03:55:30;98628.06;;;15.69;100.00
54389;BME280;40975;50.390;8.640;2023-09-12T03:57:56;98614.53;;;15.71;100.00
54389;BME280;40975;50.390;8.640;2023-09-12T04:00:21;98619.91;;;15.78;100.00
54389;BME280;40975;50.390;8.640;2023-09-12T04:02:48;98618.06;;;15.78;100.00
54389;BME280;40975;50.390;8.640;2023-09-12T04:05:14;98613.38;;;15.80;100.00
54389;BME280;40975;50.390;8.640;2023-09-12T04:07:40;98620.84;;;15.85;100.00
54389;BME280;40975;50.390;8.640;2023-09-12T04:10:05;98615.28;;;15.87;100.00
54389;BME280;40975;50.390;8.640;2023-09-12T04:12:31;98617.00;;;15.94;100.00
54389;BME280;40975;50.390;8.640;2023-09-12T04:14:56;98611.94;;;16.06;100.00
54389;BME280;40975;50.390;8.640;2023-09-12T04:17:21;98615.91;;;16.10;100.00
54389;BME280;40975;50.390;8.640;2023-09-12T04:19:47;98625.44;;;16.20;100.00
54389;BME280;40975;50.390;8.640;2023-09-12T04:22:13;98622.97;;;16.25;100.00
54389;BME280;40975;50.390;8.640;2023-09-12T04:24:38;98633.31;;;16.28;100.00
54389;BME280;40975;50.390;8.640;2023-09-12T04:27:04;98629.41;;;16.30;100.00
54389;BME280;40975;50.390;8.640;2023-09-12T04:29:32;98630.69;;;16.35;100.00
54389;BME280;40975;50.390;8.640;2023-09-12T04:31:59;98620.78;;;16.35;100.00
54389;BME280;40975;50.390;8.640;2023-09-12T04:34:27;98615.25;;;16.37;100.00
54389;BME280;40975;50.390;8.640;2023-09-12T04:36:53;98616.28;;;16.36;100.00
54389;BME280;40975;50.390;8.640;2023-09-12T04:39:19;98614.63;;;16.35;100.00
54389;BME280;40975;50.390;8.640;2023-09-12T04:41:46;98623.28;;;16.37;100.00
54389;BME280;40975;50.390;8.640;2023-09-12T04:44:11;98632.94;;;16.38;100.00
54389;BME280;40975;50.390;8.640;2023-09-12T04:46:36;98631.09;;;16.38;100.00
54389;BME280;40975;50.390;8.640;2023-09-12T04:49:03;98632.94;;;16.38;100.00
54389;BME280;40975;50.390;8.640;2023-09-12T04:51:28;98631.94;;;16.39;100.00
54389;BME280;40975;50.390;8.640;2023-09-12T04:53:54;98639.56;;;16.42;100.00
54389;BME280;40975;50.390;8.640;2023-09-12T04:56:20;98645.75;;;16.42;100.00
54389;BME280;40975;50.390;8.640;2023-09-12T04:58:46;98644.34;;;16.46;100.00
54389;BME280;40975;50.390;8.640;2023-09-12T05:01:11;98638.44;;;16.58;100.00
54389;BME280;40975;50.390;8.640;2023-09-12T05:03:36;98634.91;;;16.57;100.00
54389;BME280;40975;50.390;8.640;2023-09-12T05:06:02;98635.97;;;16.56;100.00
54389;BME280;40975;50.390;8.640;2023-09-12T05:08:29;98633.09;;;16.58;100.00
54389;BME280;40975;50.390;8.640;2023-09-12T05:10:54;98636.19;;;16.61;100.00
54389;BME280;40975;50.390;8.640;2023-09-12T05:13:19;98627.75;;;16.65;100.00
54389;BME280;40975;50.390;8.640;2023-09-12T05:15:44;98634.78;;;16.66;100.00
54389;BME280;40975;50.390;8.640;2023-09-12T05:18:10;98638.91;;;16.68;100.00
54389;BME280;40975;50.390;8.640;2023-09-12T05:20:36;98644.31;;;16.75;100.00
54389;BME280;40975;50.390;8.640;2023-09-12T05:23:02;98626.16;;;16.77;100.00
54389;BME280;40975;50.390;8.640;2023-09-12T05:25:27;98627.63;;;16.79;100.00
54389;BME280;40975;50.390;8.640;2023-09-12T05:27:54;98630.31;;;16.79;100.00
54389;BME280;40975;50.390;8.640;2023-09-12T05:30:20;98649.88;;;16.80;100.00
54389;BME280;40975;50.390;8.640;2023-09-12T05:32:45;98650.72;;;16.81;100.00
54389;BME280;40975;50.390;8.640;2023-09-12T05:35:11;98645.19;;;16.89;100.00
54389;BME280;40975;50.390;8.640;2023-09-12T05:37:36;98649.09;;;16.86;100.00
54389;BME280;40975;50.390;8.640;2023-09-12T05:40:01;98642.28;;;16.84;100.00
54389;BME280;40975;50.390;8.640;2023-09-12T05:42:28;98639.19;;;16.87;100.00
54389;BME280;40975;50.390;8.640;2023-09-12T05:44:54;98642.69;;;16.87;100.00
54389;BME280;40975;50.390;8.640;2023-09-12T05:47:20;98654.47;;;16.93;100.00
54389;BME280;40975;50.390;8.640;2023-09-12T05:49:46;98649.59;;;16.97;100.00
54389;BME280;40975;50.390;8.640;2023-09-12T05:52:11;98652.91;;;17.05;100.00
54389;BME280;40975;50.390;8.640;2023-09-12T05:54:37;98655.22;;;17.15;100.00
54389;BME280;40975;50.390;8.640;2023-09-12T05:57:03;98656.69;;;17.18;100.00
54389;BME280;40975;50.390;8.640;2023-09-12T05:59:28;98650.72;;;17.22;100.00
54389;BME280;40975;50.390;8.640;2023-09-12T06:01:54;98653.59;;;17.28;100.00
54389;BME280;40975;50.390;8.640;2023-09-12T06:04:20;98653.44;;;17.36;100.00
54389;BME280;40975;50.390;8.640;2023-09-12T06:06:46;98656.56;;;17.39;100.00
54389;BME280;40975;50.390;8.640;2023-09-12T06:09:12;98661.72;;;17.48;100.00
54389;BME280;40975;50.390;8.640;2023-09-12T06:11:37;98657.81;;;17.50;100.00
54389;BME280;40975;50.390;8.640;2023-09-12T06:14:05;98661.31;;;17.58;100.00
54389;BME280;40975;50.390;8.640;2023-09-12T06:16:31;98660.69;;;17.62;100.00
54389;BME280;40975;50.390;8.640;2023-09-12T06:18:56;98671.28;;;17.70;100.00
54389;BME280;40975;50.390;8.640;2023-09-12T06:21:21;98658.91;;;17.76;100.00
54389;BME280;40975;50.390;8.640;2023-09-12T06:23:55;98652.47;;;17.84;100.00
54389;BME280;40975;50.390;8.640;2023-09-12T06:26:32;98663.63;;;17.94;100.00
54389;BME280;40975;50.390;8.640;2023-09-12T06:28:57;98674.81;;;18.05;100.00
54389;BME280;40975;50.390;8.640;2023-09-12T06:31:23;98670.50;;;18.17;100.00
54389;BME280;40975;50.390;8.640;2023-09-12T06:33:48;98665.13;;;18.24;100.00
54389;BME280;40975;50.390;8.640;2023-09-12T06:36:13;98667.19;;;18.28;100.00
54389;BME280;40975;50.390;8.640;2023-09-12T06:38:39;98658.50;;;18.40;100.00
54389;BME280;40975;50.390;8.640;2023-09-12T06:41:04;98663.66;;;18.55;100.00
54389;BME280;40975;50.390;8.640;2023-09-12T06:43:30;98662.00;;;18.60;100.00
54389;BME280;40975;50.390;8.640;2023-09-12T06:45:55;98668.97;;;18.68;100.00
54389;BME280;40975;50.390;8.640;2023-09-12T06:48:21;98661.28;;;18.85;100.00
54389;BME280;40975;50.390;8.640;2023-09-12T06:50:46;98661.47;;;18.97;100.00
54389;BME280;40975;50.390;8.640;2023-09-12T06:53:11;98662.47;;;19.09;100.00
54389;BME280;40975;50.390;8.640;2023-09-12T06:55:37;98658.94;;;19.16;100.00
54389;BME280;40975;50.390;8.640;2023-09-12T06:58:02;98660.75;;;19.22;100.00
54389;BME280;40975;50.390;8.640;2023-09-12T07:00:28;98666.28;;;19.34;100.00
54389;BME280;40975;50.390;8.640;2023-09-12T07:02:54;98668.13;;;19.40;100.00
54389;BME280;40975;50.390;8.640;2023-09-12T07:05:19;98670.59;;;19.41;100.00
54389;BME280;40975;50.390;8.640;2023-09-12T07:07:44;98676.34;;;19.52;100.00
54389;BME280;40975;50.390;8.640;2023-09-12T07:10:10;98671.53;;;19.61;100.00
54389;BME280;40975;50.390;8.640;2023-09-12T07:12:35;98678.91;;;19.72;100.00
54389;BME280;40975;50.390;8.640;2023-09-12T07:15:01;98677.00;;;19.79;100.00
54389;BME280;40975;50.390;8.640;2023-09-12T07:17:27;98682.25;;;19.67;100.00
54389;BME280;40975;50.390;8.640;2023-09-12T07:19:53;98677.16;;;19.84;100.00
54389;BME280;40975;50.390;8.640;2023-09-12T07:22:18;98678.56;;;19.94;100.00
54389;BME280;40975;50.390;8.640;2023-09-12T07:24:43;98676.84;;;20.06;100.00
54389;BME280;40975;50.390;8.640;2023-09-12T07:27:09;98678.38;;;20.46;100.00
54389;BME280;40975;50.390;8.640;2023-09-12T07:29:34;98679.66;;;20.62;100.00
54389;BME280;40975;50.390;8.640;2023-09-12T07:31:59;98678.34;;;20.71;100.00
54389;BME280;40975;50.390;8.640;2023-09-12T07:34:25;98682.75;;;20.65;100.00
54389;BME280;40975;50.390;8.640;2023-09-12T07:36:50;98682.06;;;20.70;100.00
54389;BME280;40975;50.390;8.640;2023-09-12T07:39:19;98695.78;;;20.87;100.00
54389;BME280;40975;50.390;8.640;2023-09-12T07:41:44;98694.47;;;21.15;100.00
54389;BME280;40975;50.390;8.640;2023-09-12T07:44:10;98698.50;;;21.24;100.00
54389;BME280;40975;50.390;8.640;2023-09-12T07:46:37;98697.47;;;21.25;100.00
54389;BME280;40975;50.390;8.640;2023-09-12T07:49:02;98704.41;;;21.33;100.00
54389;BME280;40975;50.390;8.640;2023-09-12T07:51:28;98703.28;;;21.41;97.68
54389;BME280;40975;50.390;8.640;2023-09-12T07:53:53;98707.91;;;21.52;97.92
54389;BME280;40975;50.390;8.640;2023-09-12T07:56:18;98699.78;;;21.71;97.33
54389;BME280;40975;50.390;8.640;2023-09-12T07:58:44;98704.06;;;21.90;94.78
54389;BME280;40975;50.390;8.640;2023-09-12T08:01:09;98701.88;;;21.99;93.55
54389;BME280;40975;50.390;8.640;2023-09-12T08:03:36;98704.25;;;22.31;92.79
54389;BME280;40975;50.390;8.640;2023-09-12T08:06:03;98700.63;;;22.38;87.01
54389;BME280;40975;50.390;8.640;2023-09-12T08:08:29;98698.63;;;22.80;87.20
54389;BME280;40975;50.390;8.640;2023-09-12T08:10:55;98695.75;;;23.11;84.73
54389;BME280;40975;50.390;8.640;2023-09-12T08:13:22;98701.47;;;23.38;82.16
54389;BME280;40975;50.390;8.640;2023-09-12T08:15:48;98703.44;;;24.01;80.61
54389;BME280;40975;50.390;8.640;2023-09-12T08:18:13;98703.53;;;24.57;76.90
54389;BME280;40975;50.390;8.640;2023-09-12T08:20:38;98715.84;;;25.43;74.53
54389;BME280;40975;50.390;8.640;2023-09-12T08:23:04;98712.81;;;26.22;71.15
54389;BME280;40975;50.390;8.640;2023-09-12T08:25:29;98714.81;;;27.23;67.75
54389;BME280;40975;50.390;8.640;2023-09-12T08:27:54;98701.69;;;27.99;61.83
54389;BME280;40975;50.390;8.640;2023-09-12T08:30:20;98707.94;;;27.94;60.50
54389;BME280;40975;50.390;8.640;2023-09-12T08:32:45;98711.81;;;28.24;61.08
54389;BME280;40975;50.390;8.640;2023-09-12T08:35:11;98709.59;;;28.47;60.00
54389;BME280;40975;50.390;8.640;2023-09-12T08:37:40;98709.97;;;29.16;58.62
54389;BME280;40975;50.390;8.640;2023-09-12T08:40:07;98716.53;;;29.75;55.36
54389;BME280;40975;50.390;8.640;2023-09-12T08:42:41;98707.97;;;30.86;53.11
54389;BME280;40975;50.390;8.640;2023-09-12T08:45:17;98703.50;;;30.95;51.26
54389;BME280;40975;50.390;8.640;2023-09-12T08:47:45;98739.09;;;32.20;49.03
54389;BME280;40975;50.390;8.640;2023-09-12T08:50:12;98742.69;;;32.54;46.09
54389;BME280;40975;50.390;8.640;2023-09-12T08:52:42;98741.66;;;32.50;47.91
54389;BME280;40975;50.390;8.640;2023-09-12T08:55:09;98748.19;;;32.54;48.13
54389;BME280;40975;50.390;8.640;2023-09-12T08:57:38;98740.66;;;32.60;46.34
54389;BME280;40975;50.390;8.640;2023-09-12T09:00:05;98733.19;;;32.13;48.96
54389;BME280;40975;50.390;8.640;2023-09-12T09:02:35;98728.34;;;32.57;48.28
54389;BME280;40975;50.390;8.640;2023-09-12T09:05:02;98735.25;;;33.43;47.22
54389;BME280;40975;50.390;8.640;2023-09-12T09:07:32;98742.69;;;34.16;43.54
54389;BME280;40975;50.390;8.640;2023-09-12T09:09:59;98735.44;;;33.84;44.57
54389;BME280;40975;50.390;8.640;2023-09-12T09:12:27;98739.38;;;33.69;44.00
54389;BME280;40975;50.390;8.640;2023-09-12T09:14:52;98728.88;;;34.07;45.04
54389;BME280;40975;50.390;8.640;2023-09-12T09:17:19;98725.16;;;34.58;43.33
54389;BME280;40975;50.390;8.640;2023-09-12T09:19:44;98729.59;;;34.22;44.16
54389;BME280;40975;50.390;8.640;2023-09-12T09:22:10;98727.34;;;34.24;45.14
54389;BME280;40975;50.390;8.640;2023-09-12T09:24:36;98730.09;;;34.01;45.47
54389;BME280;40975;50.390;8.640;2023-09-12T09:27:01;98724.31;;;34.03;44.19
54389;BME280;40975;50.390;8.640;2023-09-12T09:29:27;98723.66;;;33.69;46.16
54389;BME280;40975;50.390;8.640;2023-09-12T09:31:57;98728.88;;;34.07;44.93
54389;BME280;40975;50.390;8.640;2023-09-12T09:34:23;98728.63;;;35.03;41.91
54389;BME280;40975;50.390;8.640;2023-09-12T09:36:53;98718.25;;;35.09;42.30
54389;BME280;40975;50.390;8.640;2023-09-12T09:39:19;98719.59;;;35.29;41.68
54389;BME280;40975;50.390;8.640;2023-09-12T09:41:53;98718.38;;;35.71;42.62
54389;BME280;40975;50.390;8.640;2023-09-12T09:44:24;98721.31;;;36.75;39.25
54389;BME280;40975;50.390;8.640;2023-09-12T09:46:54;98717.56;;;35.88;41.37
54389;BME280;40975;50.390;8.640;2023-09-12T09:49:20;98708.81;;;35.77;41.60
54389;BME280;40975;50.390;8.640;2023-09-12T09:51:46;98717.84;;;36.39;39.49
54389;BME280;40975;50.390;8.640;2023-09-12T09:54:13;98711.19;;;36.49;38.74
54389;BME280;40975;50.390;8.640;2023-09-12T09:56:48;98706.34;;;36.19;40.37
54389;BME280;40975;50.390;8.640;2023-09-12T09:59:19;98708.50;;;35.96;40.93
54389;BME280;40975;50.390;8.640;2023-09-12T10:01:45;98703.94;;;35.65;40.93
54389;BME280;40975;50.390;8.640;2023-09-12T10:04:12;98710.25;;;35.83;40.92
54389;BME280;40975;50.390;8.640;2023-09-12T10:06:38;98707.97;;;36.38;39.62
54389;BME280;40975;50.390;8.640;2023-09-12T10:09:10;98710.72;;;36.20;39.00
54389;BME280;40975;50.390;8.640;2023-09-12T10:11:37;98711.72;;;36.33;40.54
54389;BME280;40975;50.390;8.640;2023-09-12T10:14:04;98708.97;;;35.80;40.08
54389;BME280;40975;50.390;8.640;2023-09-12T10:16:32;98706.56;;;35.03;40.31
54389;BME280;40975;50.390;8.640;2023-09-12T10:19:20;98699.88;;;35.45;42.27
54389;BME280;40975;50.390;8.640;2023-09-12T10:21:59;98699.38;;;35.60;40.86
54389;BME280;40975;50.390;8.640;2023-09-12T10:24:29;98702.47;;;35.85;39.46
54389;BME280;40975;50.390;8.640;2023-09-12T10:26:57;98699.19;;;36.27;40.70
54389;BME280;40975;50.390;8.640;2023-09-12T10:29:23;98701.69;;;35.93;39.97
54389;BME280;40975;50.390;8.640;2023-09-12T10:31:49;98700.66;;;36.16;40.82
54389;BME280;40975;50.390;8.640;2023-09-12T10:34:15;98694.81;;;36.26;39.42
54389;BME280;40975;50.390;8.640;2023-09-12T10:36:42;98686.00;;;36.50;38.72
54389;BME280;40975;50.390;8.640;2023-09-12T10:39:09;98681.22;;;35.51;39.67
54389;BME280;40975;50.390;8.640;2023-09-12T10:41:37;98681.72;;;35.53;41.11
54389;BME280;40975;50.390;8.640;2023-09-12T10:44:09;98678.94;;;35.70;41.11
54389;BME280;40975;50.390;8.640;2023-09-12T10:46:37;98683.50;;;35.57;40.16
54389;BME280;40975;50.390;8.640;2023-09-12T10:49:09;98670.78;;;34.81;42.74
54389;BME280;40975;50.390;8.640;2023-09-12T10:51:40;98670.97;;;34.84;41.99
54389;BME280;40975;50.390;8.640;2023-09-12T10:54:06;98675.06;;;34.96;39.19
54389;BME280;40975;50.390;8.640;2023-09-12T10:56:33;98674.00;;;34.74;41.50
54389;BME280;40975;50.390;8.640;2023-09-12T11:01:36;98679.00;;;34.63;39.98
54389;BME280;40975;50.390;8.640;2023-09-12T11:06:52;98665.94;;;34.78;40.45
54389;BME280;40975;50.390;8.640;2023-09-12T11:12:03;98668.72;;;33.78;42.89
54389;BME280;40975;50.390;8.640;2023-09-12T11:14:30;98667.09;;;33.40;42.18
54389;BME280;40975;50.390;8.640;2023-09-12T11:19:46;98662.06;;;33.33;45.03
54389;BME280;40975;50.390;8.640;2023-09-12T11:22:28;98645.88;;;33.04;44.19
54389;BME280;40975;50.390;8.640;2023-09-12T11:24:54;98645.50;;;32.83;44.76
54389;BME280;40975;50.390;8.640;2023-09-12T11:27:22;98631.22;;;32.53;45.98
54389;BME280;40975;50.390;8.640;2023-09-12T11:29:48;98637.41;;;31.98;46.13
54389;BME280;40975;50.390;8.640;2023-09-12T11:32:25;98631.09;;;31.97;49.39
54389;BME280;40975;50.390;8.640;2023-09-12T11:34:52;98642.78;;;32.03;49.49
54389;BME280;40975;50.390;8.640;2023-09-12T11:37:24;98638.00;;;32.28;46.00
54389;BME280;40975;50.390;8.640;2023-09-12T11:39:50;98636.81;;;32.62;44.18
54389;BME280;40975;50.390;8.640;2023-09-12T11:42:18;98647.22;;;32.79;44.08
54389;BME280;40975;50.390;8.640;2023-09-12T11:44:43;98652.72;;;32.93;43.92
54389;BME280;40975;50.390;8.640;2023-09-12T11:47:12;98651.28;;;32.95;44.44
54389;BME280;40975;50.390;8.640;2023-09-12T11:49:39;98645.03;;;32.48;43.16
54389;BME280;40975;50.390;8.640;2023-09-12T11:52:23;98651.06;;;32.78;43.28
54389;BME280;40975;50.390;8.640;2023-09-12T11:54:49;98643.53;;;32.55;43.97
54389;BME280;40975;50.390;8.640;2023-09-12T11:57:14;98649.09;;;32.50;44.71
54389;BME280;40975;50.390;8.640;2023-09-12T11:59:41;98647.38;;;32.27;44.55
54389;BME280;40975;50.390;8.640;2023-09-12T12:02:09;98645.53;;;32.03;44.29
54389;BME280;40975;50.390;8.640;2023-09-12T12:04:35;98642.53;;;32.18;46.18
54389;BME280;40975;50.390;8.640;2023-09-12T12:07:02;98639.28;;;32.16;44.71
54389;BME280;40975;50.390;8.640;2023-09-12T12:09:29;98645.28;;;31.85;45.69
54389;BME280;40975;50.390;8.640;2023-09-12T12:11:54;98647.69;;;32.39;45.21
54389;BME280;40975;50.390;8.640;2023-09-12T12:14:20;98645.69;;;32.72;46.95
54389;BME280;40975;50.390;8.640;2023-09-12T12:16:46;98650.84;;;32.60;46.24
54389;BME280;40975;50.390;8.640;2023-09-12T12:19:13;98635.84;;;31.91;46.96
54389;BME280;40975;50.390;8.640;2023-09-12T12:21:39;98635.28;;;31.18;47.39
54389;BME280;40975;50.390;8.640;2023-09-12T12:24:09;98637.56;;;30.86;47.22
54389;BME280;40975;50.390;8.640;2023-09-12T12:26:34;98633.81;;;30.82;49.81
54389;BME280;40975;50.390;8.640;2023-09-12T12:29:00;98635.13;;;30.85;49.38
54389;BME280;40975;50.390;8.640;2023-09-12T12:31:26;98635.38;;;30.64;49.47
54389;BME280;40975;50.390;8.640;2023-09-12T12:33:56;98630.09;;;30.73;48.04
54389;BME280;40975;50.390;8.640;2023-09-12T12:36:22;98633.66;;;31.17;48.91
54389;BME280;40975;50.390;8.640;2023-09-12T12:38:49;98633.44;;;31.52;48.67
54389;BME280;40975;50.390;8.640;2023-09-12T12:41:16;98630.97;;;31.50;47.50
54389;BME280;40975;50.390;8.640;2023-09-12T12:43:42;98630.31;;;31.20;47.86
54389;BME280;40975;50.390;8.640;2023-09-12T12:46:12;98624.47;;;31.27;49.14
54389;BME280;40975;50.390;8.640;2023-09-12T12:48:38;98619.13;;;31.74;47.77
54389;BME280;40975;50.390;8.640;2023-09-12T12:51:22;98623.34;;;31.85;47.18
54389;BME280;40975;50.390;8.640;2023-09-12T12:54:02;98621.59;;;32.22;46.57
54389;BME280;40975;50.390;8.640;2023-09-12T12:56:29;98622.47;;;32.37;46.68
54389;BME280;40975;50.390;8.640;2023-09-12T12:58:56;98618.50;;;32.10;45.97
54389;BME280;40975;50.390;8.640;2023-09-12T13:01:23;98619.88;;;31.79;47.20
54389;BME280;40975;50.390;8.640;2023-09-12T13:03:49;98619.00;;;31.27;46.94
54389;BME280;40975;50.390;8.640;2023-09-12T13:06:19;98613.31;;;30.99;48.92
54389;BME280;40975;50.390;8.640;2023-09-12T13:08:45;98607.09;;;30.93;49.53